Time;durP1;ratioP1;P1;durP2;ratioP2;P2;SDS_P1;SDS_P2;PMS_P1;PMS_P2;Temp;Humidity;BMP_temperature;BMP_pressure;BME280_temperature;BME280_humidity;BME280_pressure;Samples;Min_cycle;Max_cycle;Signal;HPM_P1;HPM_P2
2021/03/08 00:01:19;;;;;;;3.33;2.33;;;;;;;1.72;44.14;99970.72;4385647;32;33208;-70
2021/03/08 00:03:47;;;;;;;3.90;2.47;;;;;;;1.55;44.83;99970.81;4385551;32;34480;-70
2021/03/08 00:06:14;;;;;;;2.20;1.80;;;;;;;1.37;46.16;99963.94;4385852;32;35036;-70
2021/03/08 00:08:41;;;;;;;3.75;3.45;;;;;;;1.53;45.48;99970.87;4396623;32;33704;-70
2021/03/08 00:11:08;;;;;;;3.40;2.33;;;;;;;1.59;44.98;99965.31;4390260;32;32891;-70
2021/03/08 00:13:35;;;;;;;0.90;0.90;;;;;;;1.45;45.82;99960.00;4385303;32;33674;-70
2021/03/08 00:16:02;;;;;;;2.08;1.98;;;;;;;1.35;45.87;99960.56;4385322;32;34942;-70
2021/03/08 00:18:31;;;;;;;4.25;3.60;;;;;;;1.38;45.47;99958.62;4397046;32;35080;-70
2021/03/08 00:20:58;;;;;;;1.30;1.25;;;;;;;1.45;45.16;99954.75;4385286;32;34064;-70
2021/03/08 00:23:25;;;;;;;1.62;1.52;;;;;;;1.45;44.80;99951.25;4384985;32;34622;-70
2021/03/08 00:25:52;;;;;;;5.97;2.35;;;;;;;1.61;44.83;99955.56;4369465;32;34838;-70
2021/03/08 00:28:19;;;;;;;3.58;1.77;;;;;;;1.57;44.63;99954.06;4385174;32;34169;-70
2021/03/08 00:30:46;;;;;;;2.15;1.90;;;;;;;1.47;45.47;99947.63;4396545;32;33106;-70
2021/03/08 00:33:14;;;;;;;2.22;1.73;;;;;;;1.57;44.83;99940.09;4378818;32;35013;-70
2021/03/08 00:35:41;;;;;;;0.90;0.90;;;;;;;1.56;44.52;99943.66;4396897;32;34296;-70
2021/03/08 00:38:08;;;;;;;5.03;1.85;;;;;;;1.37;44.87;99943.84;4385280;32;34283;-70
2021/03/08 00:40:36;;;;;;;1.58;1.52;;;;;;;1.11;46.40;99941.78;4396783;32;33803;-70
2021/03/08 00:43:03;;;;;;;2.80;2.00;;;;;;;1.13;46.72;99946.94;4385631;32;33471;-70
2021/03/08 00:45:30;;;;;;;4.93;2.00;;;;;;;1.23;46.03;99935.03;4385334;32;35689;-70
2021/03/08 00:47:58;;;;;;;3.10;2.78;;;;;;;0.90;47.19;99936.81;4385472;32;34235;-70
2021/03/08 00:50:27;;;;;;;4.87;3.75;;;;;;;1.16;46.15;99928.41;4384092;32;33036;-70
2021/03/08 00:52:55;;;;;;;1.85;1.05;;;;;;;0.97;47.09;99935.56;4371544;32;33650;-70
2021/03/08 00:55:26;;;;;;;2.05;1.80;;;;;;;0.84;47.18;99931.94;4396247;32;34830;-70
2021/03/08 00:57:53;;;;;;;3.80;2.90;;;;;;;0.78;47.97;99921.75;4385595;32;34107;-70
2021/03/08 01:00:25;;;;;;;1.20;1.10;;;;;;;0.84;48.12;99929.31;4385523;32;33306;-70
2021/03/08 01:02:54;;;;;;;2.30;2.15;;;;;;;0.76;47.80;99927.06;4385946;32;34124;-70
2021/03/08 01:05:22;;;;;;;3.20;2.95;;;;;;;1.01;46.69;99921.38;4385675;32;34942;-70
2021/03/08 01:07:51;;;;;;;0.68;0.55;;;;;;;1.08;47.22;99917.50;4384626;32;34441;-70
2021/03/08 01:10:24;;;;;;;2.45;1.83;;;;;;;1.05;46.71;99913.28;4378653;32;32271;-70
2021/03/08 01:12:52;;;;;;;2.00;1.60;;;;;;;1.08;46.62;99918.38;4384093;32;35092;-70
2021/03/08 01:15:20;;;;;;;5.72;2.83;;;;;;;1.02;47.11;99916.06;4385126;32;35694;-70
2021/03/08 01:17:51;;;;;;;2.12;2.03;;;;;;;0.99;46.82;99897.91;4372387;32;33774;-70
2021/03/08 01:20:19;;;;;;;3.67;2.42;;;;;;;0.98;47.24;99897.97;4396524;32;32588;-70
2021/03/08 01:22:47;;;;;;;1.55;1.52;;;;;;;1.04;46.72;99892.41;4396330;32;33438;-70
2021/03/08 01:25:15;;;;;;;3.70;2.17;;;;;;;0.74;47.63;99900.13;4371399;32;34489;-70
2021/03/08 01:27:42;;;;;;;2.97;1.83;;;;;;;0.80;47.71;99904.19;4384936;32;35271;-70
2021/03/08 01:30:16;;;;;;;1.55;1.48;;;;;;;0.53;48.39;99903.00;4396213;32;33707;-70
2021/03/08 01:32:43;;;;;;;2.20;1.77;;;;;;;0.70;47.81;99897.75;4385204;32;34203;-70
2021/03/08 01:35:11;;;;;;;2.83;2.33;;;;;;;0.60;47.94;99899.16;4385045;32;35811;-70
2021/03/08 01:37:38;;;;;;;4.47;4.20;;;;;;;0.69;47.88;99903.91;4396271;32;34820;-70
2021/03/08 01:40:08;;;;;;;1.70;1.42;;;;;;;0.63;48.04;99902.47;4384567;32;33158;-70
2021/03/08 01:42:36;;;;;;;1.80;1.15;;;;;;;0.75;47.58;99907.06;4384782;32;33533;-70
2021/03/08 01:45:05;;;;;;;3.10;2.85;;;;;;;0.74;48.08;99907.13;4395657;32;34898;-70
2021/03/08 01:47:32;;;;;;;0.52;0.35;;;;;;;0.80;47.54;99898.94;4385224;32;35196;-70
2021/03/08 01:50:00;;;;;;;2.05;1.95;;;;;;;0.85;47.16;99907.44;4396343;32;34451;-70
2021/03/08 01:52:28;;;;;;;;;;;;;;;0.77;47.84;99907.81;4396392;32;33631;-70
2021/03/08 01:54:55;;;;;;;3.83;3.62;;;;;;;0.87;47.24;99909.00;4395900;32;35083;-70
2021/03/08 01:57:22;;;;;;;2.47;2.37;;;;;;;0.70;47.61;99906.47;4383257;32;35558;-70
2021/03/08 01:59:49;;;;;;;4.70;1.97;;;;;;;0.48;48.61;99899.81;4385398;32;33207;-70
2021/03/08 02:02:17;;;;;;;2.40;2.30;;;;;;;0.78;47.83;99900.81;4383419;32;33114;-70
2021/03/08 02:04:44;;;;;;;2.42;1.80;;;;;;;0.64;47.95;99905.91;4383293;32;35432;-70
2021/03/08 02:07:11;;;;;;;4.03;3.70;;;;;;;0.41;49.16;99896.63;4384578;32;34660;-70
2021/03/08 02:09:39;;;;;;;2.05;1.95;;;;;;;0.34;49.42;99894.41;4382955;32;33213;-70
2021/03/08 02:12:31;;;;;;;0.93;0.93;;;;;;;0.28;50.06;99886.91;4384486;32;33385;-70
2021/03/08 02:15:22;;;;;;;1.23;1.23;;;;;;;0.47;49.60;99887.66;4395755;32;35242;-70
2021/03/08 02:18:36;;;;;;;4.62;2.90;;;;;;;0.51;49.41;99891.78;4384832;32;34646;-70
2021/03/08 02:21:17;;;;;;;2.53;1.30;;;;;;;0.38;50.28;99877.66;4367275;32;34197;-70
2021/03/08 02:24:03;;;;;;;1.12;1.12;;;;;;;0.57;49.30;99881.00;4367476;32;33396;-70
2021/03/08 02:26:39;;;;;;;1.80;1.70;;;;;;;0.73;48.30;99874.88;4366503;32;34324;-70
2021/03/08 02:29:40;;;;;;;1.77;1.67;;;;;;;0.76;48.04;99866.03;4366753;32;34576;-70
2021/03/08 02:32:10;;;;;;;0.75;0.75;;;;;;;0.78;47.88;99867.59;4366783;32;32882;-70
2021/03/08 02:35:16;;;;;;;1.73;1.62;;;;;;;0.55;48.97;99870.59;4366676;32;33489;-70
2021/03/08 02:37:55;;;;;;;1.33;1.23;;;;;;;0.64;48.70;99872.75;4366579;32;35632;-70
2021/03/08 02:40:35;;;;;;;2.70;1.62;;;;;;;0.62;48.82;99871.97;4366477;32;34163;-70
2021/03/08 02:43:10;;;;;;;1.10;0.95;;;;;;;0.59;48.71;99866.88;4354127;32;34620;-70
2021/03/08 02:45:38;;;;;;;2.00;1.80;;;;;;;0.74;48.03;99862.63;4263187;27;33413;-75
2021/03/08 02:48:06;;;;;;;1.65;1.55;;;;;;;0.48;49.40;99864.00;4355684;32;36438;-76
2021/03/08 02:50:34;;;;;;;2.55;2.12;;;;;;;0.20;49.94;99863.72;4359964;32;34902;-75
2021/03/08 02:53:08;;;;;;;3.95;3.22;;;;;;;0.41;48.96;99854.75;4355883;32;33977;-75
2021/03/08 02:55:39;;;;;;;2.92;2.55;;;;;;;0.61;48.46;99858.97;4377297;32;33664;-76
2021/03/08 02:58:09;;;;;;;7.90;2.85;;;;;;;0.68;48.26;99858.56;4362033;32;36212;-75
2021/03/08 03:00:38;;;;;;;2.67;1.65;;;;;;;0.46;49.15;99855.38;4376467;32;34252;-74
2021/03/08 03:03:09;;;;;;;1.20;1.20;;;;;;;0.57;48.72;99858.28;4388577;32;32932;-75
2021/03/08 03:05:38;;;;;;;2.40;1.77;;;;;;;0.58;48.60;99851.28;4383274;32;32845;-75
2021/03/08 03:08:07;;;;;;;3.30;2.53;;;;;;;0.65;48.32;99856.09;4363873;32;34117;-75
2021/03/08 03:10:36;;;;;;;5.12;1.92;;;;;;;0.51;49.06;99857.75;4349468;32;33917;-76
2021/03/08 03:13:04;;;;;;;0.95;0.95;;;;;;;0.42;49.58;99860.88;4377062;32;33565;-75
2021/03/08 03:15:36;;;;;;;2.12;1.98;;;;;;;0.57;49.16;99860.91;4351557;32;34070;-74
2021/03/08 03:18:04;;;;;;;1.55;1.45;;;;;;;0.65;48.85;99856.09;4375668;32;34702;-75
2021/03/08 03:20:34;;;;;;;1.73;1.23;;;;;;;0.58;49.13;99857.34;4374027;32;34345;-74
2021/03/08 03:23:02;;;;;;;2.12;2.03;;;;;;;0.67;48.81;99869.13;4375351;32;32631;-76
2021/03/08 03:25:31;;;;;;;2.03;1.92;;;;;;;0.39;49.45;99867.09;4374649;32;34662;-75
2021/03/08 03:27:59;;;;;;;1.83;1.73;;;;;;;0.55;49.32;99867.12;4363445;32;33872;-75
2021/03/08 03:30:28;;;;;;;1.27;1.27;;;;;;;0.30;50.00;99864.13;4373098;32;33940;-75
2021/03/08 03:32:56;;;;;;;0.45;0.45;;;;;;;0.28;50.89;99865.97;4366057;32;33649;-76
2021/03/08 03:35:26;;;;;;;1.92;1.83;;;;;;;0.44;49.68;99869.47;4349182;32;36092;-76
2021/03/08 03:37:55;;;;;;;3.92;3.70;;;;;;;0.32;50.48;99862.25;4376337;32;36106;-75
2021/03/08 03:40:23;;;;;;;1.35;1.27;;;;;;;0.53;49.54;99862.00;4374609;32;34711;-75
2021/03/08 03:42:51;;;;;;;3.45;2.28;;;;;;;0.62;49.07;99871.13;4351311;32;34218;-76
2021/03/08 03:45:23;;;;;;;1.33;1.27;;;;;;;0.61;49.21;99870.31;4350741;32;33550;-75
2021/03/08 03:47:50;;;;;;;1.50;1.40;;;;;;;0.47;49.85;99870.16;4375327;32;34944;-75
2021/03/08 03:50:24;;;;;;;4.35;3.00;;;;;;;0.63;49.52;99872.81;4362397;32;34717;-75
2021/03/08 03:52:51;;;;;;;3.42;2.95;;;;;;;0.47;49.62;99869.34;4348005;32;32394;-77
2021/03/08 03:55:19;;;;;;;;;;;;;;;0.60;49.23;99873.81;4363800;32;33479;-75
2021/03/08 03:57:50;;;;;;;0.75;0.75;;;;;;;0.34;49.98;99870.87;4363463;32;34770;-74
2021/03/08 04:00:23;;;;;;;2.37;2.22;;;;;;;0.34;49.87;99870.87;4383412;32;35982;-75
2021/03/08 04:03:06;;;;;;;1.75;1.08;;;;;;;0.43;49.73;99863.41;4353158;32;34892;-74
2021/03/08 04:05:34;;;;;;;3.30;0.90;;;;;;;0.26;50.30;99879.13;4365580;32;34408;-75
2021/03/08 04:08:03;;;;;;;1.02;0.95;;;;;;;0.49;49.85;99877.94;4370809;32;36133;-75
2021/03/08 04:10:32;;;;;;;1.08;1.00;;;;;;;0.56;49.89;99877.53;4374553;32;34465;-75
2021/03/08 04:13:04;;;;;;;3.33;3.03;;;;;;;0.48;49.85;99869.22;4375340;32;32894;-75
2021/03/08 04:15:32;;;;;;;2.72;2.00;;;;;;;0.73;48.76;99872.25;4375046;32;33292;-75
2021/03/08 04:18:00;;;;;;;;;;;;;;;0.74;48.46;99860.00;4376741;32;34071;-77
2021/03/08 04:20:31;;;;;;;1.02;1.02;;;;;;;0.76;48.42;99858.16;4374739;32;34675;-75
2021/03/08 04:23:05;;;;;;;2.10;2.03;;;;;;;0.68;48.44;99855.09;4376963;32;33441;-75
2021/03/08 04:25:33;;;;;;;3.10;2.35;;;;;;;0.65;48.51;99870.94;4376199;32;34800;-75
2021/03/08 04:28:02;;;;;;;1.58;1.33;;;;;;;0.48;49.00;99868.41;4384665;32;35768;-75
2021/03/08 04:30:30;;;;;;;2.67;2.45;;;;;;;0.20;49.80;99863.72;4351555;32;36087;-75
2021/03/08 04:32:57;;;;;;;2.00;1.87;;;;;;;0.23;50.20;99865.34;4365952;32;33884;-74
2021/03/08 04:35:30;;;;;;;3.62;2.67;;;;;;;0.18;50.02;99862.13;4364602;32;34758;-74
2021/03/08 04:37:58;;;;;;;2.50;2.33;;;;;;;0.33;49.73;99859.59;4376092;32;35723;-77
2021/03/08 04:40:25;;;;;;;;;;;;;;;0.29;49.76;99868.50;4365661;32;34740;-74
2021/03/08 04:42:53;;;;;;;4.65;4.28;;;;;;;0.40;49.27;99863.53;4384543;32;33283;-75
2021/03/08 04:45:21;;;;;;;1.15;1.15;;;;;;;0.21;49.62;99873.28;4362552;32;35462;-74
2021/03/08 04:47:50;;;;;;;;;;;;;;;0.17;50.21;99876.12;4375402;32;35302;-74
2021/03/08 04:50:17;;;;;;;3.67;3.35;;;;;;;-0.03;51.03;99870.22;4352695;32;34684;-74
2021/03/08 04:52:45;;;;;;;;;;;;;;;-0.23;51.36;99880.78;4363858;32;32286;-74
2021/03/08 04:55:14;;;;;;;1.95;1.92;;;;;;;-0.34;52.03;99883.97;4376226;32;33717;-74
2021/03/08 04:57:42;;;;;;;4.37;4.05;;;;;;;-0.56;52.55;99880.66;4375078;32;35458;-74
2021/03/08 05:00:12;;;;;;;4.60;3.08;;;;;;;-0.22;51.87;99880.72;4370545;32;34076;-76
2021/03/08 05:02:41;;;;;;;1.15;1.15;;;;;;;0.02;51.19;99872.50;4373347;32;33473;-76
2021/03/08 05:05:10;;;;;;;1.62;1.50;;;;;;;-0.09;51.23;99883.59;4374370;32;32967;-75
2021/03/08 05:07:41;;;;;;;3.62;3.33;;;;;;;0.09;50.75;99881.75;4375568;32;35660;-74
2021/03/08 05:10:11;;;;;;;7.18;3.08;;;;;;;0.13;50.71;99870.19;4363815;32;35757;-75
2021/03/08 05:12:40;;;;;;;1.60;1.45;;;;;;;0.16;50.61;99871.81;4365935;32;33960;-76
2021/03/08 05:15:10;;;;;;;3.53;2.28;;;;;;;0.25;49.87;99866.13;4373925;32;33169;-75
2021/03/08 05:17:38;;;;;;;3.12;2.92;;;;;;;0.31;49.62;99871.03;4384229;32;35897;-75
2021/03/08 05:20:07;;;;;;;3.80;3.60;;;;;;;0.30;49.68;99864.94;4374545;32;34212;-76
2021/03/08 05:22:35;;;;;;;1.75;1.65;;;;;;;0.23;50.31;99867.97;4377377;32;33033;-76
2021/03/08 05:25:04;;;;;;;0.85;0.73;;;;;;;0.22;50.17;99863.66;4374703;32;33247;-75
2021/03/08 05:27:32;;;;;;;0.68;0.68;;;;;;;0.22;50.08;99864.50;4357495;32;35870;-75
2021/03/08 05:30:03;;;;;;;3.50;2.05;;;;;;;0.35;50.00;99869.94;4384157;32;34845;-76
2021/03/08 05:32:35;;;;;;;3.25;3.03;;;;;;;0.34;49.98;99874.34;4360902;32;34220;-77
2021/03/08 05:35:03;;;;;;;3.50;2.90;;;;;;;0.45;49.72;99868.53;4376833;32;34685;-75
2021/03/08 05:37:31;;;;;;;3.47;2.15;;;;;;;0.47;49.53;99871.94;4372181;32;33875;-75
2021/03/08 05:39:59;;;;;;;1.83;1.73;;;;;;;0.47;49.37;99872.78;4381622;32;35224;-75
2021/03/08 05:42:28;;;;;;;;;;;;;;;0.32;49.64;99870.94;4359338;32;35190;-76
2021/03/08 05:45:10;;;;;;;3.85;3.62;;;;;;;0.39;49.98;99876.72;4381915;32;34796;-74
2021/03/08 05:48:07;;;;;;;1.83;1.75;;;;;;;0.43;50.03;99873.00;4372943;32;34994;-74
2021/03/08 05:51:01;;;;;;;5.93;2.08;;;;;;;0.15;51.21;99865.75;4363472;32;34426;-75
2021/03/08 05:53:57;;;;;;;2.83;2.62;;;;;;;0.05;51.53;99866.28;4373685;32;33066;-75
2021/03/08 05:56:58;;;;;;;2.08;1.98;;;;;;;0.45;50.62;99868.53;4383641;32;34458;-75
2021/03/08 05:59:35;;;;;;;2.67;2.50;;;;;;;0.27;51.48;99865.13;4375598;32;35785;-76
2021/03/08 06:02:30;;;;;;;1.27;0.82;;;;;;;0.34;51.29;99873.50;4374809;32;34016;-75
2021/03/08 06:05:17;;;;;;;4.40;1.80;;;;;;;0.40;51.46;99879.25;4373650;32;34776;-75
2021/03/08 06:08:11;;;;;;;4.87;3.75;;;;;;;0.56;51.10;99893.22;4362031;32;35070;-75
2021/03/08 06:10:47;;;;;;;5.03;4.05;;;;;;;0.59;50.56;99889.63;4375434;32;35853;-76
2021/03/08 06:13:16;;;;;;;3.03;2.83;;;;;;;0.60;50.93;99892.13;4372873;32;34657;-75
2021/03/08 06:15:50;;;;;;;3.50;2.17;;;;;;;0.63;51.15;99893.75;4383886;32;32922;-75
2021/03/08 06:18:18;;;;;;;3.05;2.80;;;;;;;0.79;50.66;99894.66;4376739;32;33927;-75
2021/03/08 06:20:46;;;;;;;4.87;4.53;;;;;;;0.79;50.38;99905.97;4375189;32;35664;-75
2021/03/08 06:23:19;;;;;;;3.03;2.87;;;;;;;0.92;50.13;99906.16;4349570;32;35025;-75
2021/03/08 06:25:53;;;;;;;2.20;2.10;;;;;;;1.01;50.69;99916.13;4364330;32;32818;-74
2021/03/08 06:28:23;;;;;;;9.85;4.85;;;;;;;1.16;50.28;99916.19;4354418;32;32752;-75
2021/03/08 06:30:51;;;;;;;3.00;2.65;;;;;;;1.42;49.33;99912.13;4364402;32;36193;-75
2021/03/08 06:33:19;;;;;;;;;;;;;;;1.29;49.94;99916.34;4373670;32;36586;-75
2021/03/08 06:35:46;;;;;;;3.33;2.87;;;;;;;1.81;48.81;99913.34;4355070;32;32249;-77
2021/03/08 06:38:14;;;;;;;4.32;3.90;;;;;;;1.81;48.88;99915.97;4375022;32;34356;-78
2021/03/08 06:40:41;;;;;;;;;;;;;;;2.00;49.03;99923.66;4372321;32;89318;-76
2021/03/08 06:43:08;;;;;;;2.62;2.42;;;;;;;2.36;48.50;99919.72;4347986;32;33271;-76
2021/03/08 06:45:36;;;;;;;2.35;2.17;;;;;;;2.40;48.41;99920.38;4371444;32;33834;-77
2021/03/08 06:48:04;;;;;;;3.95;2.45;;;;;;;2.53;48.46;99926.63;4350913;32;34199;-76
2021/03/08 06:50:32;;;;;;;6.65;3.75;;;;;;;2.74;48.10;99931.41;4375098;32;34465;-76
2021/03/08 06:52:59;;;;;;;4.05;3.67;;;;;;;2.85;47.92;99929.00;4372748;32;34001;-76
2021/03/08 06:55:26;;;;;;;4.80;3.57;;;;;;;2.86;47.87;99934.13;4381617;32;34029;-77
2021/03/08 06:57:54;;;;;;;2.45;1.52;;;;;;;3.07;47.54;99938.09;4370339;32;33597;-76
2021/03/08 07:00:22;;;;;;;6.80;3.10;;;;;;;3.18;47.72;99951.44;4360305;32;34621;-76
2021/03/08 07:02:49;;;;;;;3.67;3.45;;;;;;;3.28;46.78;99947.28;4373264;32;33131;-77
2021/03/08 07:05:22;;;;;;;5.50;3.67;;;;;;;3.30;47.47;99941.94;4358115;32;33632;-76
2021/03/08 07:13:09;;;;;;;2.17;2.00;;;;;;;3.73;46.49;99938.28;4378615;32;35739;-76
2021/03/08 07:23:12;;;;;;;1.12;1.12;;;;;;;4.60;43.92;99951.72;4321199;32;33613;-85
2021/03/08 07:41:46;;;;;;;4.90;2.12;;;;;;;4.39;44.51;99962.81;4314234;33;34758;-77
2021/03/08 08:05:23;;;;;;;3.37;1.95;;;;;;;5.36;42.16;99958.66;4250040;33;33800;-76
2021/03/08 08:22:26;;;;;;;3.15;2.95;;;;;;;5.68;42.77;99958.06;4242898;33;35559;-76
2021/03/08 08:25:53;;;;;;;2.92;2.60;;;;;;;5.77;42.36;99956.56;4269283;33;37047;-76
2021/03/08 08:32:50;;;;;;;3.87;2.15;;;;;;;5.97;42.70;99964.75;4317392;33;33396;-76
2021/03/08 08:40:06;;;;;;;3.08;1.95;;;;;;;5.93;40.65;99973.88;4312553;32;34368;-76
2021/03/08 08:43:49;;;;;;;3.60;3.30;;;;;;;6.44;41.04;99970.03;4268133;33;33479;-77
2021/03/08 08:47:58;;;;;;;17.45;3.10;;;;;;;6.70;40.21;99971.56;4282344;33;34733;-76
2021/03/08 08:51:21;;;;;;;4.82;3.20;;;;;;;6.78;39.79;99961.25;4296598;33;34255;-76
2021/03/08 09:29:51;;;;;;;3.05;2.30;;;;;;;9.00;35.83;99929.72;4291590;33;34049;-78
2021/03/08 09:43:02;;;;;;;9.90;3.00;;;;;;;9.74;34.69;99926.69;4308504;33;33973;-77
2021/03/08 09:46:13;;;;;;;7.05;3.90;;;;;;;9.46;33.80;99924.78;4319093;33;34403;-77
2021/03/08 10:18:20;;;;;;;5.82;4.20;;;;;;;10.25;33.69;99925.56;4223037;33;33596;-77
2021/03/08 10:21:58;;;;;;;;;;;;;;;;;;;;;
2021/03/08 11:02:38;;;;;;;4.90;2.80;;;;;;;11.54;31.01;99898.09;4260499;33;33457;-78
2021/03/08 11:33:16;;;;;;;3.08;2.80;;;;;;;11.63;31.70;99894.56;4313792;33;33352;-78
2021/03/08 11:36:41;;;;;;;3.67;3.08;;;;;;;11.89;31.16;99894.69;4269821;33;34242;-78
2021/03/08 11:43:21;;;;;;;3.35;2.00;;;;;;;11.75;30.89;99881.88;4257760;33;33732;-77
2021/03/08 12:03:27;;;;;;;4.07;2.85;;;;;;;11.17;30.45;99900.91;4264750;33;35311;-78
2021/03/08 12:29:58;;;;;;;4.50;2.55;;;;;;;11.96;31.10;99885.09;4386875;32;35559;-78
2021/03/08 12:33:32;;;;;;;4.57;2.10;;;;;;;12.45;30.73;99874.75;4364468;32;34508;-78
2021/03/08 12:48:43;;;;;;;6.85;2.33;;;;;;;14.42;27.13;99880.56;4256484;33;34574;-77
2021/03/08 12:58:54;;;;;;;2.92;1.95;;;;;;;14.97;27.07;99861.78;4211237;33;36300;-77
2021/03/08 13:15:08;;;;;;;4.43;3.12;;;;;;;15.08;26.98;99848.03;4446865;32;33086;-77
2021/03/08 13:18:36;;;;;;;2.53;1.92;;;;;;;15.72;25.42;99863.91;4387548;32;34262;-77
2021/03/08 13:28:22;;;;;;;3.87;1.70;;;;;;;14.69;25.51;99856.97;4330648;33;32592;-77
2021/03/08 13:34:01;;;;;;;2.45;1.87;;;;;;;14.00;25.77;99861.91;4303569;27;34837;-75
2021/03/08 13:36:29;;;;;;;2.17;1.95;;;;;;;14.51;25.94;99859.81;4344272;33;35032;-74
2021/03/08 13:39:10;;;;;;;2.47;1.50;;;;;;;14.68;25.08;99852.59;4333952;33;33115;-75
2021/03/08 13:41:37;;;;;;;;;;;;;;;14.96;25.60;99845.88;4345187;33;34592;-74
2021/03/08 13:44:04;;;;;;;1.35;1.25;;;;;;;14.22;25.93;99852.41;4344759;33;34406;-74
2021/03/08 13:46:32;;;;;;;2.42;1.25;;;;;;;14.38;25.35;99849.75;4345098;33;32920;-74
2021/03/08 13:48:59;;;;;;;2.42;1.10;;;;;;;14.13;25.19;99864.13;4344714;33;32762;-75
2021/03/08 13:51:26;;;;;;;1.95;0.88;;;;;;;14.31;26.33;99859.47;4361443;32;35155;-75
2021/03/08 13:53:54;;;;;;;0.35;0.30;;;;;;;14.39;25.75;99847.75;4391100;32;35392;-75
2021/03/08 13:56:24;;;;;;;1.90;0.57;;;;;;;14.23;25.65;99860.28;4407355;32;33520;-75
2021/03/08 13:58:51;;;;;;;2.22;1.37;;;;;;;14.10;25.97;99864.41;4408314;32;33033;-75
2021/03/08 14:01:19;;;;;;;0.98;0.30;;;;;;;14.21;25.80;99853.44;4406434;32;33643;-76
2021/03/08 14:03:46;;;;;;;1.17;1.05;;;;;;;13.98;25.70;99853.19;4407113;32;34872;-76
2021/03/08 14:06:14;;;;;;;0.75;0.70;;;;;;;14.10;26.35;99853.72;4407474;32;33983;-76
2021/03/08 14:08:42;;;;;;;1.27;0.77;;;;;;;13.91;25.92;99868.25;4419611;32;33129;-76
2021/03/08 14:11:10;;;;;;;0.62;0.62;;;;;;;14.12;25.86;99865.94;4415280;32;33273;-77
2021/03/08 14:13:37;;;;;;;0.73;0.73;;;;;;;14.48;25.89;99862.00;4406448;32;34531;-76
2021/03/08 14:16:26;;;;;;;0.35;0.35;;;;;;;14.35;25.41;99864.31;4407955;32;33073;-76
2021/03/08 14:18:54;;;;;;;0.98;0.93;;;;;;;14.01;25.95;99874.28;4402550;32;34190;-76
2021/03/08 14:21:22;;;;;;;1.73;1.08;;;;;;;14.31;26.68;99875.50;4399177;32;34358;-76
2021/03/08 14:23:50;;;;;;;0.50;0.37;;;;;;;14.05;25.68;99870.25;4383285;32;34775;-76
2021/03/08 14:26:18;;;;;;;1.15;0.60;;;;;;;13.61;25.92;99874.13;4388872;32;33129;-76
2021/03/08 14:28:55;;;;;;;;;;;;;;;13.59;26.59;99878.00;4385942;32;32520;-76
2021/03/08 14:31:25;;;;;;;1.13;0.33;;;;;;;13.98;25.91;99881.78;4383812;32;33367;-76
2021/03/08 14:33:52;;;;;;;1.00;1.00;;;;;;;13.82;26.12;99879.06;4396369;32;34940;-76
2021/03/08 14:36:21;;;;;;;0.47;0.47;;;;;;;14.38;25.87;99887.25;4397562;32;33388;-76
2021/03/08 14:38:49;;;;;;;1.23;1.00;;;;;;;13.94;25.92;99888.44;4394631;32;32071;-76
2021/03/08 14:41:16;;;;;;;1.65;1.37;;;;;;;13.15;26.53;99897.81;4396881;32;33049;-76
2021/03/08 14:43:44;;;;;;;0.43;0.43;;;;;;;13.60;26.15;99882.34;4382538;32;34537;-76
2021/03/08 14:46:11;;;;;;;1.87;1.23;;;;;;;13.82;26.76;99893.28;4404202;32;33870;-76
2021/03/08 14:48:41;;;;;;;1.20;0.93;;;;;;;14.02;26.13;99904.53;4394014;32;33082;-76
2021/03/08 14:51:15;;;;;;;1.65;0.65;;;;;;;14.42;25.79;99893.94;4400380;32;33827;-76
2021/03/08 14:53:42;;;;;;;;;;;;;;;14.29;26.24;99896.25;4398055;32;36224;-76
2021/03/08 14:56:10;;;;;;;1.30;1.00;;;;;;;14.76;25.43;99903.50;4392997;32;34444;-76
2021/03/08 14:58:40;;;;;;;1.65;0.88;;;;;;;14.31;25.75;99912.97;4397985;32;32673;-76
2021/03/08 15:01:07;;;;;;;0.85;0.82;;;;;;;14.98;25.86;99916.19;4387481;32;35612;-76
2021/03/08 15:03:35;;;;;;;5.70;1.45;;;;;;;15.33;24.76;99913.16;4400316;32;35317;-76
2021/03/08 15:06:03;;;;;;;1.08;0.98;;;;;;;14.99;24.58;99921.38;4396685;32;33529;-76
2021/03/08 15:08:50;;;;;;;2.05;1.70;;;;;;;14.33;26.37;99917.16;4394853;32;32907;-75
2021/03/08 15:11:18;;;;;;;0.68;0.65;;;;;;;15.12;26.35;99927.03;4392505;32;32291;-76
2021/03/08 15:13:49;;;;;;;1.70;1.25;;;;;;;15.06;25.23;99918.84;4381944;32;36736;-76
2021/03/08 15:16:16;;;;;;;1.52;1.42;;;;;;;14.91;25.43;99920.53;4393862;32;35560;-76
2021/03/08 15:18:43;;;;;;;1.08;0.95;;;;;;;14.47;25.24;99920.03;4399295;32;33341;-77
2021/03/08 15:21:10;;;;;;;0.75;0.75;;;;;;;14.40;24.74;99926.22;4403650;32;35097;-76
2021/03/08 15:23:37;;;;;;;0.60;0.60;;;;;;;14.96;24.34;99921.72;4385692;32;35684;-76
2021/03/08 15:26:05;;;;;;;1.35;1.25;;;;;;;14.37;25.21;99921.22;4380089;32;34246;-76
2021/03/08 15:28:32;;;;;;;1.00;0.93;;;;;;;14.60;25.67;99925.75;4402928;32;33167;-77
2021/03/08 15:30:59;;;;;;;1.62;0.75;;;;;;;14.86;25.81;99915.69;4398003;32;33877;-76
2021/03/08 15:33:28;;;;;;;1.23;1.12;;;;;;;14.52;25.92;99924.87;4396381;32;37167;-76
2021/03/08 15:35:55;;;;;;;1.15;1.08;;;;;;;14.58;25.53;99925.06;4407343;32;33448;-76
2021/03/08 15:38:39;;;;;;;1.80;1.30;;;;;;;14.47;25.50;99927.25;4394400;32;33245;-76
2021/03/08 15:41:09;;;;;;;3.35;1.12;;;;;;;14.62;25.92;99930.91;4403032;32;33746;-76
2021/03/08 15:43:36;;;;;;;3.20;0.70;;;;;;;14.17;26.54;99930.50;4403627;32;35106;-76
2021/03/08 15:46:03;;;;;;;2.37;1.80;;;;;;;13.95;27.16;99935.62;4379118;32;34663;-76
2021/03/08 15:48:31;;;;;;;2.65;1.58;;;;;;;13.82;27.58;99938.75;4387410;32;33057;-76
2021/03/08 15:50:58;;;;;;;2.58;1.67;;;;;;;13.12;28.40;99943.53;4395079;32;33173;-76
2021/03/08 15:53:25;;;;;;;1.75;1.40;;;;;;;12.65;29.30;99942.16;4397875;32;34265;-76
2021/03/08 15:55:53;;;;;;;2.50;1.65;;;;;;;12.54;29.47;99945.03;4383250;32;35494;-75
2021/03/08 15:58:20;;;;;;;1.17;1.05;;;;;;;12.10;30.11;99951.25;4382923;32;34834;-76
2021/03/08 16:00:47;;;;;;;3.05;2.28;;;;;;;12.08;30.43;99963.87;4383800;32;34360;-76
2021/03/08 16:03:15;;;;;;;1.08;0.80;;;;;;;11.86;31.02;99962.50;4399164;32;34215;-76
2021/03/08 16:05:42;;;;;;;1.85;1.37;;;;;;;11.60;31.73;99973.97;4395519;32;34823;-76
2021/03/08 16:08:09;;;;;;;2.47;2.08;;;;;;;11.64;31.05;99975.34;4397562;32;33671;-75
2021/03/08 16:10:37;;;;;;;1.77;1.67;;;;;;;11.64;31.84;99976.19;4401599;32;33768;-76
2021/03/08 16:13:04;;;;;;;1.42;1.33;;;;;;;11.20;32.22;99980.50;4396716;32;36528;-75
2021/03/08 16:15:31;;;;;;;2.00;1.90;;;;;;;11.27;32.24;99989.59;4404641;32;33893;-75
2021/03/08 16:18:19;;;;;;;2.35;1.90;;;;;;;10.77;33.35;99988.13;4379437;32;33842;-76
2021/03/08 16:20:46;;;;;;;1.12;0.93;;;;;;;10.53;34.17;99985.91;4395934;32;33277;-75
2021/03/08 16:23:13;;;;;;;0.68;0.68;;;;;;;10.05;34.54;99992.13;4397325;32;34803;-75
2021/03/08 16:25:41;;;;;;;1.90;1.80;;;;;;;9.81;35.96;99995.09;4381488;32;34242;-75
2021/03/08 16:28:08;;;;;;;4.65;1.67;;;;;;;9.86;35.63;99992.87;4382578;32;34682;-76
2021/03/08 16:30:36;;;;;;;2.15;1.73;;;;;;;9.59;36.00;99991.78;4397083;32;33208;-75
2021/03/08 16:33:08;;;;;;;5.80;1.83;;;;;;;9.19;37.54;99994.34;4380095;32;35683;-75
2021/03/08 16:35:39;;;;;;;2.50;2.05;;;;;;;8.99;37.57;100005.00;4400359;32;33979;-76
2021/03/08 16:38:12;;;;;;;4.03;2.47;;;;;;;8.47;38.91;100014.78;4402178;32;33103;-76
2021/03/08 16:40:41;;;;;;;3.90;1.98;;;;;;;8.56;38.48;100021.00;4392145;32;33046;-75
2021/03/08 16:43:09;;;;;;;5.18;1.25;;;;;;;8.50;38.71;100021.50;4387894;32;34785;-76
2021/03/08 16:45:45;;;;;;;2.10;2.00;;;;;;;8.28;39.39;100027.84;4392525;32;35056;-76
2021/03/08 16:48:23;;;;;;;3.40;1.40;;;;;;;7.93;39.87;100032.44;4399050;32;33127;-76
2021/03/08 16:50:54;;;;;;;;;;;;;;;7.98;39.81;100028.47;4405377;32;33571;-75
2021/03/08 16:53:22;;;;;;;2.47;0.85;;;;;;;7.37;41.12;100031.56;4390216;32;33947;-75
2021/03/08 16:55:53;;;;;;;3.10;1.75;;;;;;;7.16;41.65;100035.06;4391147;32;33119;-75
2021/03/08 16:58:28;;;;;;;1.35;1.33;;;;;;;7.84;40.29;100028.69;4408872;32;33721;-75
2021/03/08 17:01:02;;;;;;;3.53;2.17;;;;;;;7.09;42.08;100032.00;4402525;32;33845;-75
2021/03/08 17:03:33;;;;;;;2.25;1.92;;;;;;;7.37;41.63;100036.03;4399776;32;34688;-76
2021/03/08 17:06:07;;;;;;;4.78;1.77;;;;;;;7.55;41.21;100040.75;4409251;32;35035;-75
2021/03/08 17:08:40;;;;;;;6.32;2.60;;;;;;;7.65;41.00;100041.69;4404414;32;34114;-75
2021/03/08 17:11:12;;;;;;;3.10;1.92;;;;;;;7.34;41.66;100042.41;4404403;32;32707;-76
2021/03/08 17:13:45;;;;;;;2.45;2.22;;;;;;;7.22;42.02;100056.59;4398638;32;34667;-75
2021/03/08 17:16:18;;;;;;;2.25;1.83;;;;;;;7.08;41.81;100051.47;4402024;32;34206;-75